.
WxDataArchive / Data Records for 2010-04-06
2010-04-05 April 2010 2010-04-07

Data Records for Tuesday, 06 April 2010

Time	Temp	Chill	HIndex	Humid	Dewpt	 Wind 	HiWind	WindDir	Rain 	Barom 
-----	----	-----	------	-----	-----	------	------	-------	-----	----- 
00:00	63.7	63.7	63.7	75	55.6	0	2	135	0.00	29.816 
00:05	63.4	63.4	63.4	77	56.1	0	2	135	0.00	29.816 
00:10	63.2	63.2	63.2	77	55.9	1	2	90	0.00	29.816 
00:15	63.2	63.2	63.2	79	56.6	1	3	90	0.00	29.807 
00:20	63.2	63.2	63.2	80	56.9	1	3	112	0.00	29.807 
00:25	63.2	63.2	63.2	80	56.9	1	4	90	0.00	29.807 
00:30	63.2	63.2	63.2	81	57.3	1	3	135	0.00	29.800 
00:35	63.1	63.1	63.1	81	57.2	0	2	135	0.00	29.800 
00:40	63.2	63.2	63.2	81	57.3	1	4	112	0.00	29.800 
00:45	63.2	63.2	63.2	81	57.3	1	4	90	0.00	29.803 
00:50	63.4	63.4	63.4	81	57.5	2	4	112	0.00	29.803 
00:55	63.5	63.5	63.5	81	57.6	1	4	112	0.00	29.803 
01:00	63.5	63.5	63.5	81	57.6	1	4	112	0.00	29.798 
01:05	63.7	63.7	63.7	81	57.8	1	4	112	0.00	29.798 
01:10	63.7	63.7	63.7	81	57.8	1	4	112	0.00	29.798 
01:15	63.7	63.7	63.7	81	57.8	1	4	90	0.00	29.789 
01:20	63.5	63.5	63.5	81	57.6	1	3	112	0.00	29.789 
01:25	63.5	63.5	63.5	82	57.9	1	3	112	0.00	29.789 
01:30	63.5	63.5	63.5	82	57.9	2	4	112	0.00	29.786 
01:35	63.5	63.5	63.5	82	57.9	1	4	90	0.00	29.786 
01:40	63.5	63.5	63.5	82	57.9	2	6	112	0.00	29.786 
01:45	63.7	63.7	63.7	82	58.1	1	4	135	0.00	29.786 
01:50	63.5	63.5	63.5	83	58.2	1	6	90	0.00	29.786 
01:55	63.5	63.5	63.5	83	58.2	2	5	112	0.00	29.786 
02:00	63.7	63.7	63.7	83	58.4	2	9	248	0.00	29.776 
02:05	63.5	63.5	63.5	84	58.6	1	2	90	0.00	29.776 
02:10	63.4	63.4	63.4	84	58.5	1	4	90	0.00	29.776 
02:15	63.2	63.2	63.2	84	58.3	1	3	90	0.00	29.774 
02:20	63.2	63.2	63.2	84	58.3	0	4	248	0.00	29.774 
02:25	63.1	63.1	63.1	85	58.5	1	4	90	0.00	29.774 
02:30	63.1	63.1	63.1	85	58.5	1	4	90	0.00	29.770 
02:35	63.1	63.1	63.1	85	58.5	0	2	90	0.00	29.770 
02:40	62.9	62.9	62.9	85	58.3	0	3	270	0.00	29.770 
02:45	63.2	63.2	63.2	86	58.9	1	6	270	0.00	29.780 
02:50	63.2	63.2	63.2	85	58.6	1	3	248	0.00	29.780 
02:55	63.2	63.2	63.2	85	58.6	0	3	248	0.00	29.780 
03:00	63.2	63.2	63.2	85	58.6	1	3	248	0.00	29.768 
03:05	63.2	63.2	63.2	85	58.6	1	3	248	0.00	29.768 
03:10	63.2	63.2	63.2	85	58.6	1	5	248	0.00	29.768 
03:15	63.2	63.2	63.2	85	58.6	1	4	248	0.00	29.761 
03:20	63.1	63.1	63.1	85	58.5	1	5	270	0.00	29.761 
03:25	63.1	63.1	63.1	85	58.5	1	3	270	0.00	29.761 
03:30	63.1	63.1	63.1	85	58.5	1	5	248	0.00	29.753 
03:35	63.1	63.1	63.1	85	58.5	1	4	248	0.00	29.753 
03:40	63.1	63.1	63.1	85	58.5	1	4	248	0.00	29.753 
03:45	63.1	63.1	63.1	85	58.5	1	4	248	0.00	29.753 
03:50	63.1	63.1	63.1	85	58.5	1	4	248	0.00	29.753 
03:55	63.1	63.1	63.1	84	58.2	1	4	270	0.00	29.753 
04:00	63.1	63.1	63.1	84	58.2	1	3	248	0.00	29.764 
04:05	63.2	63.2	63.2	84	58.3	2	5	248	0.00	29.764 
04:10	63.2	63.2	63.2	83	57.9	1	4	248	0.00	29.764 
04:15	63.2	63.2	63.2	83	57.9	1	6	248	0.00	29.758 
04:20	63.5	63.5	63.5	82	57.9	2	6	248	0.00	29.758 
04:25	63.7	63.7	63.7	81	57.8	2	5	248	0.00	29.758 
04:30	63.9	63.9	63.9	81	57.9	2	5	248	0.00	29.767 
04:35	64.0	64.0	64.0	80	57.7	2	6	270	0.00	29.767 
04:40	64.2	64.2	64.2	79	57.5	2	6	248	0.00	29.767 
04:45	64.3	64.3	64.3	78	57.3	2	5	225	0.00	29.767 
04:50	64.5	64.5	64.5	77	57.1	3	7	248	0.00	29.767 
04:55	64.7	64.7	64.7	77	57.3	2	6	270	0.00	29.767 
05:00	64.8	64.8	64.8	76	57.0	2	7	248	0.00	29.762 
05:05	65.0	65.0	65.0	75	56.9	3	11	248	0.00	29.762 
05:10	65.2	65.2	65.2	75	57.1	3	7	225	0.00	29.762 
05:15	65.3	65.3	65.3	75	57.2	2	5	248	0.00	29.768 
05:20	65.5	65.5	65.5	74	57.0	3	10	225	0.00	29.768 
05:25	65.5	65.5	65.5	74	57.0	2	5	270	0.00	29.768 
05:30	65.5	65.5	65.5	74	57.0	2	6	248	0.00	29.765 
05:35	65.6	65.6	65.6	74	57.1	3	13	248	0.00	29.765 
05:40	65.6	65.6	65.6	74	57.1	2	6	248	0.00	29.765 
05:45	65.6	65.6	65.6	74	57.1	2	7	248	0.00	29.760 
05:50	65.5	65.5	65.5	74	57.0	3	11	270	0.00	29.760 
05:55	65.5	65.5	65.5	74	57.0	3	7	248	0.00	29.760 
06:00	65.3	65.3	65.3	75	57.2	3	7	248	0.00	29.760 
06:05	65.3	65.3	65.3	75	57.2	3	9	248	0.00	29.760 
06:10	65.2	65.2	65.2	75	57.1	3	7	248	0.00	29.760 
06:15	65.2	65.2	65.2	75	57.1	2	7	225	0.00	29.760 
06:20	65.0	65.0	65.0	76	57.2	3	11	248	0.00	29.760 
06:25	65.0	65.0	65.0	76	57.2	2	6	248	0.00	29.760 
06:30	64.8	64.8	64.8	76	57.0	1	4	248	0.00	29.753 
06:35	64.7	64.7	64.7	77	57.3	3	10	248	0.00	29.753 
06:40	64.7	64.7	64.7	77	57.3	2	6	248	0.00	29.753 
06:45	64.5	64.5	64.5	77	57.1	3	7	248	0.00	29.742 
06:50	64.5	64.5	64.5	77	57.1	2	7	248	0.00	29.742 
06:55	64.5	64.5	64.5	77	57.1	3	9	248	0.00	29.742 
07:00	64.3	64.3	64.3	78	57.3	2	5	248	0.00	29.738 
07:05	64.3	64.3	64.3	78	57.3	2	10	248	0.00	29.738 
07:10	64.2	64.2	64.2	78	57.2	3	9	248	0.00	29.738 
07:15	64.2	64.2	64.2	79	57.5	3	10	248	0.00	29.740 
07:20	64.2	64.2	64.2	79	57.5	3	10	248	0.00	29.740 
07:25	64.2	64.2	64.2	79	57.5	3	7	270	0.00	29.740 
07:30	64.2	64.2	64.2	79	57.5	2	7	270	0.00	29.747 
07:35	64.2	64.2	64.2	79	57.5	2	5	248	0.00	29.747 
07:40	64.2	64.2	64.2	79	57.5	3	6	248	0.00	29.747 
07:45	64.3	64.3	64.3	79	57.6	3	6	248	0.00	29.737 
07:50	64.3	64.3	64.3	79	57.6	2	9	248	0.00	29.737 
07:55	64.5	64.5	64.5	79	57.8	2	7	248	0.00	29.737 
08:00	64.7	64.7	64.7	79	58.0	3	7	248	0.00	29.743 
08:05	64.7	64.7	64.7	79	58.0	3	7	248	0.00	29.743 
08:10	65.0	65.0	65.0	78	58.0	3	9	248	0.00	29.743 
08:15	65.0	65.0	65.0	78	58.0	3	6	248	0.00	29.743 
08:20	65.2	65.2	65.2	78	58.2	2	7	248	0.00	29.743 
08:25	65.3	65.3	65.3	78	58.3	2	7	248	0.00	29.743 
08:30	65.6	65.6	65.6	77	58.2	2	7	248	0.00	29.746 
08:35	65.8	65.8	65.8	77	58.4	3	6	248	0.00	29.746 
08:40	66.1	66.1	66.1	76	58.3	4	9	248	0.00	29.746 
08:45	66.4	66.4	66.4	75	58.2	3	7	248	0.00	29.742 
08:50	66.6	66.6	66.6	75	58.4	2	4	248	0.00	29.742 
08:55	66.8	66.8	66.8	75	58.6	3	9	270	0.00	29.742 
09:00	67.1	67.1	67.1	75	58.9	3	10	248	0.00	29.740 
09:05	67.3	67.3	67.3	74	58.7	3	7	248	0.00	29.740 
09:10	67.4	67.4	67.4	73	58.4	3	9	248	0.00	29.740 
09:15	67.6	67.6	67.6	73	58.6	3	8	248	0.00	29.727 
09:20	67.9	67.9	67.9	73	58.9	3	7	225	0.00	29.727 
09:25	68.1	68.1	68.1	72	58.7	3	7	248	0.00	29.727 
09:30	68.3	68.3	68.3	72	58.9	3	6	270	0.00	29.726 
09:35	68.4	68.4	68.4	71	58.6	3	10	248	0.00	29.726 
09:40	68.6	68.6	68.6	71	58.8	3	10	248	0.00	29.726 
09:45	68.9	68.9	68.9	70	58.7	2	6	270	0.00	29.726 
09:50	69.3	69.3	69.3	69	58.7	4	14	248	0.00	29.726 
09:55	69.4	69.4	69.4	69	58.8	3	10	248	0.00	29.726 
10:00	69.4	69.4	69.4	68	58.4	3	9	248	0.00	29.726 
10:05	69.6	69.6	69.6	67	58.1	4	10	248	0.00	29.726 
10:10	69.6	69.6	69.6	67	58.1	3	10	248	0.00	29.726 
10:15	69.8	69.8	69.8	67	58.3	2	11	270	0.00	29.720 
10:20	70.3	70.3	70.3	65	58.0	2	6	248	0.00	29.720 
10:25	70.6	70.6	70.6	65	58.2	3	9	248	0.00	29.720 
10:30	70.8	70.8	70.8	65	58.4	3	10	248	0.00	29.710 
10:35	70.8	70.8	70.8	63	57.6	5	11	248	0.00	29.710 
10:40	70.9	70.9	70.9	64	58.1	4	10	248	0.00	29.710 
10:45	71.3	71.3	71.3	63	58.0	2	6	248	0.00	29.710 
10:50	71.8	71.8	71.8	62	58.1	4	10	248	0.00	29.710 
10:55	71.8	71.8	71.8	59	56.7	4	10	248	0.00	29.710 
11:00	71.6	71.6	71.6	60	57.0	5	19	248	0.00	29.713 
11:05	71.6	71.6	71.6	61	57.4	4	18	248	0.00	29.713 
11:10	72.3	72.3	72.3	60	57.6	4	9	248	0.00	29.713 
11:15	72.8	72.8	72.8	58	57.1	4	9	248	0.00	29.716 
11:20	73.2	73.2	73.2	58	57.5	4	10	248	0.00	29.716 
11:25	73.3	73.3	73.3	57	57.1	4	10	248	0.00	29.716 
11:30	73.7	73.7	73.7	57	57.5	4	12	248	0.00	29.702 
11:35	74.0	74.0	74.0	55	56.8	3	9	248	0.00	29.702 
11:40	74.2	74.2	74.2	56	57.5	3	13	270	0.00	29.702 
11:45	74.4	74.4	74.4	54	56.7	4	14	270	0.00	29.695 
11:50	74.2	74.2	74.2	56	57.5	4	9	248	0.00	29.695 
11:55	74.4	74.4	74.4	54	56.7	5	12	248	0.00	29.695 
12:00	74.6	74.6	74.6	54	56.8	4	11	248	0.00	29.689 
12:05	74.7	74.7	74.7	54	56.9	4	10	248	0.00	29.689 
12:10	75.3	75.3	77.7	55	58.0	2	9	270	0.00	29.689 
12:15	75.6	75.6	77.9	52	56.7	5	11	248	0.00	29.684 
12:20	75.8	75.8	78.0	53	57.4	4	7	248	0.00	29.684 
12:25	76.0	76.0	78.1	51	56.5	5	12	248	0.00	29.684 
12:30	76.1	76.1	78.1	50	56.1	5	13	270	0.00	29.678 
12:35	76.5	76.5	78.3	51	57.0	3	10	248	0.00	29.678 
12:40	76.3	76.3	78.2	49	55.7	3	6	248	0.00	29.678 
12:45	76.3	76.3	78.2	50	56.3	4	10	248	0.00	29.676 
12:50	76.7	76.7	78.4	49	56.1	3	11	248	0.00	29.676 
12:55	76.8	76.8	78.4	46	54.4	6	15	248	0.00	29.676 
13:00	76.8	76.8	78.4	47	55.0	5	14	248	0.00	29.672 
13:05	76.8	76.8	78.4	46	54.4	5	12	248	0.00	29.672 
13:10	77.6	77.6	78.8	47	55.8	5	14	248	0.00	29.672 
13:15	77.9	77.9	78.9	45	54.8	4	14	270	0.00	29.670 
13:20	77.4	77.4	78.6	45	54.4	6	15	248	0.00	29.670 
13:25	77.6	77.6	78.8	45	54.6	5	10	248	0.00	29.670 
13:30	77.6	77.6	78.8	46	55.2	4	9	270	0.00	29.659 
13:35	77.6	77.6	78.8	45	54.6	5	14	248	0.00	29.659 
13:40	77.6	77.6	78.8	46	55.2	5	15	270	0.00	29.659 
13:45	78.1	78.1	79.0	45	55.0	4	13	248	0.00	29.656 
13:50	78.3	78.3	79.2	45	55.2	4	12	248	0.00	29.656 
13:55	78.1	78.1	79.0	44	54.4	5	11	248	0.00	29.656 
14:00	78.8	78.8	79.5	45	55.6	4	10	248	0.00	29.653 
14:05	78.6	78.6	79.3	44	54.8	6	12	248	0.00	29.653 
14:10	78.3	78.3	79.1	44	54.6	5	14	248	0.00	29.653 
14:15	77.9	77.9	78.9	45	54.8	4	11	248	0.00	29.651 
14:20	78.3	78.3	79.2	45	55.2	4	10	248	0.00	29.651 
14:25	78.1	78.1	79.0	44	54.4	5	12	248	0.00	29.651 
14:30	78.3	78.3	79.2	45	55.2	4	10	270	0.00	29.652 
14:35	79.2	79.2	79.8	46	56.6	4	11	248	0.00	29.652 
14:40	79.6	79.6	79.8	42	54.5	5	13	225	0.00	29.652 
14:45	79.2	79.2	79.6	43	54.7	4	11	248	0.00	29.647 
14:50	78.6	78.6	79.3	44	54.8	5	13	270	0.00	29.647 
14:55	78.6	78.6	79.3	44	54.8	3	12	248	0.00	29.647 
15:00	79.2	79.2	79.5	42	54.1	5	14	270	0.00	29.639 
15:05	79.8	79.8	80.0	43	55.3	4	11	248	0.00	29.639 
15:10	80.1	80.1	80.2	42	54.9	3	9	248	0.00	29.639 
15:15	80.1	80.1	80.3	43	55.6	4	15	248	0.00	29.636 
15:20	80.3	80.3	80.2	41	54.4	5	10	270	0.00	29.636 
15:25	79.9	79.9	80.0	42	54.7	4	10	248	0.00	29.636 
15:30	80.1	80.1	80.1	41	54.2	3	10	248	0.00	29.626 
15:35	80.5	80.5	80.4	41	54.6	5	13	248	0.00	29.626 
15:40	81.1	81.1	80.7	40	54.5	3	13	248	0.00	29.626 
15:45	80.7	80.7	80.4	40	54.1	4	9	248	0.00	29.622 
15:50	80.7	80.7	80.6	42	55.4	4	11	248	0.00	29.622 
15:55	81.1	81.1	80.7	40	54.5	4	11	270	0.00	29.622 
16:00	81.2	81.2	80.7	39	53.9	5	11	248	0.00	29.612 
16:05	81.4	81.4	81.0	40	54.7	4	16	270	0.00	29.612 
16:10	81.2	81.2	80.6	38	53.1	5	18	248	0.00	29.612 
16:15	81.4	81.4	80.8	38	53.3	3	7	248	0.00	29.601 
16:20	81.6	81.6	80.8	37	52.8	5	11	270	0.00	29.601 
16:25	82.0	82.0	81.0	36	52.4	5	13	248	0.00	29.601 
16:30	82.0	82.0	81.1	37	53.1	4	11	248	0.00	29.596 
16:35	82.0	82.0	81.0	36	52.4	5	13	248	0.00	29.596 
16:40	82.0	82.0	81.0	36	52.4	4	11	248	0.00	29.596 
16:45	82.4	82.4	81.3	36	52.7	4	9	270	0.00	29.595 
16:50	82.4	82.4	81.2	35	52.0	6	14	248	0.00	29.595 
16:55	82.2	82.2	81.1	35	51.8	5	13	248	0.00	29.595 
17:00	82.4	82.4	81.1	34	51.2	4	12	248	0.00	29.590 
17:05	82.6	82.6	81.3	34	51.4	4	11	248	0.00	29.590 
17:10	82.6	82.6	81.4	35	52.1	3	6	248	0.00	29.590 
17:15	82.8	82.8	81.4	34	51.5	4	10	248	0.00	29.589 
17:20	82.8	82.8	81.2	32	49.9	5	11	248	0.00	29.589 
17:25	82.6	82.6	81.2	33	50.6	4	11	248	0.00	29.589 
17:30	82.6	82.6	81.1	32	49.7	4	17	248	0.00	29.587 
17:35	82.6	82.6	81.2	33	50.6	3	10	248	0.00	29.587 
17:40	82.6	82.6	81.2	33	50.6	3	6	248	0.00	29.587 
17:45	82.6	82.6	81.0	31	48.9	4	10	248	0.00	29.581 
17:50	82.6	82.6	80.8	29	47.1	6	14	248	0.00	29.581 
17:55	82.4	82.4	80.7	29	46.9	4	15	270	0.00	29.581 
18:00	82.4	82.4	80.8	30	47.8	4	9	248	0.00	29.583 
18:05	82.4	82.4	80.7	29	46.9	3	7	248	0.00	29.583 
18:10	82.4	82.4	80.7	29	46.9	3	13	225	0.00	29.583 
18:15	82.2	82.2	80.5	29	46.8	5	12	248	0.00	29.580 
18:20	81.8	81.8	80.2	28	45.5	6	12	248	0.00	29.580 
18:25	81.8	81.8	80.3	29	46.4	4	9	248	0.00	29.580 
18:30	81.6	81.6	80.1	28	45.3	3	11	248	0.00	29.574 
18:35	81.4	81.4	79.9	28	45.1	4	11	248	0.00	29.574 
18:40	81.2	81.2	79.9	30	46.8	3	10	248	0.00	29.574 
18:45	81.1	81.1	79.8	29	45.8	3	10	248	0.00	29.574 
18:50	81.1	81.1	79.9	30	46.7	2	5	270	0.00	29.574 
18:55	81.1	81.1	79.9	30	46.7	2	7	248	0.00	29.574 
19:00	80.9	80.9	79.8	31	47.4	2	7	248	0.00	29.575 
19:05	80.9	80.9	79.7	30	46.5	3	9	248	0.00	29.575 
19:10	80.9	80.9	79.7	29	45.6	3	7	248	0.00	29.575 
19:15	80.7	80.7	79.5	29	45.5	3	7	248	0.00	29.573 
19:20	80.5	80.5	79.4	29	45.3	3	8	248	0.00	29.573 
19:25	80.5	80.5	79.4	29	45.3	4	11	248	0.00	29.573 
19:30	80.1	80.1	79.2	30	45.8	2	7	248	0.00	29.575 
19:35	79.9	79.9	79.1	29	44.8	3	7	248	0.00	29.575 
19:40	79.8	79.8	79.0	29	44.7	2	7	248	0.00	29.575 
19:45	79.6	79.6	78.9	29	44.5	3	7	248	0.00	29.575 
19:50	79.4	79.4	78.8	30	45.2	2	5	248	0.00	29.575 
19:55	79.2	79.2	78.8	31	45.9	2	5	248	0.00	29.575 
20:00	78.8	78.8	78.6	31	45.6	2	10	248	0.00	29.576 
20:05	78.6	78.6	78.5	31	45.4	2	9	270	0.00	29.576 
20:10	78.3	78.3	78.3	31	45.2	2	11	248	0.00	29.576 
20:15	78.3	78.3	78.3	31	45.2	3	7	248	0.00	29.576 
20:20	78.1	78.1	78.2	31	45.0	2	7	248	0.00	29.576 
20:25	77.9	77.9	78.2	32	45.6	2	10	248	0.00	29.576 
20:30	77.7	77.7	78.1	32	45.5	2	7	248	0.00	29.577 
20:35	77.4	77.4	78.0	32	45.2	2	6	270	0.00	29.577 
20:40	77.2	77.2	77.9	33	45.8	2	5	248	0.00	29.577 
20:45	76.8	76.8	77.8	33	45.5	1	6	248	0.00	29.579 
20:50	76.5	76.5	77.7	34	46.0	1	3	270	0.00	29.579 
20:55	76.1	76.1	77.6	34	45.7	1	4	248	0.00	29.579 
21:00	76.0	76.0	77.6	35	46.4	1	5	270	0.00	29.582 
21:05	75.6	75.6	77.4	35	46.0	1	3	225	0.00	29.582 
21:10	75.4	75.4	77.4	35	45.8	1	4	225	0.00	29.582 
21:15	75.3	75.3	77.4	35	45.7	1	4	248	0.00	29.582 
21:20	74.9	74.9	74.9	36	46.1	1	5	248	0.00	29.582 
21:25	74.7	74.7	74.7	36	46.0	1	5	248	0.00	29.582 
21:30	74.6	74.6	74.6	37	46.6	1	3	248	0.00	29.591 
21:35	74.2	74.2	74.2	38	46.9	0	3	248	0.00	29.591 
21:40	73.9	73.9	73.9	38	46.7	0	2	270	0.00	29.591 
21:45	73.5	73.5	73.5	39	47.0	0	6	248	0.00	29.595 
21:50	73.3	73.3	73.3	39	46.8	1	4	45	0.00	29.595 
21:55	73.0	73.0	73.0	40	47.2	0	2	248	0.00	29.595 
22:00	72.7	72.7	72.7	41	47.6	0	3	248	0.00	29.586 
22:05	72.3	72.3	72.3	41	47.3	0	1	248	0.00	29.586 
22:10	72.1	72.1	72.1	42	47.7	1	2	248	0.00	29.586 
22:15	72.1	72.1	72.1	42	47.7	0	3	248	0.00	29.568 
22:20	72.1	72.1	72.1	41	47.1	1	4	248	0.00	29.568 
22:25	72.5	72.5	72.5	40	46.8	2	4	248	0.00	29.568 
22:30	72.7	72.7	72.7	40	47.0	2	5	248	0.00	29.588 
22:35	72.8	72.8	72.8	39	46.4	1	4	225	0.00	29.588 
22:40	72.8	72.8	72.8	39	46.4	1	5	248	0.00	29.588 
22:45	72.7	72.7	72.7	39	46.3	1	6	248	0.00	29.578 
22:50	72.5	72.5	72.5	39	46.1	1	4	248	0.00	29.578 
22:55	72.5	72.5	72.5	38	45.4	1	6	248	0.00	29.578 
23:00	72.3	72.3	72.3	39	45.9	2	5	248	0.00	29.587 
23:05	72.3	72.3	72.3	38	45.3	2	5	248	0.00	29.587 
23:10	72.3	72.3	72.3	38	45.3	2	6	248	0.00	29.587 
23:15	72.3	72.3	72.3	38	45.3	2	7	225	0.00	29.581 
23:20	72.3	72.3	72.3	37	44.6	3	9	248	0.00	29.581 
23:25	72.1	72.1	72.1	37	44.4	2	6	248	0.00	29.581 
23:30	72.1	72.1	72.1	37	44.4	2	6	248	0.00	29.586 
23:35	72.1	72.1	72.1	37	44.4	2	4	248	0.00	29.586 
23:40	72.0	72.0	72.0	37	44.3	2	5	225	0.00	29.586 
23:45	71.8	71.8	71.8	38	44.8	2	7	248	0.00	29.592 
23:50	71.8	71.8	71.8	38	44.8	2	6	248	0.00	29.592 
23:55	71.6	71.6	71.6	39	45.3	2	5	248	0.00	29.592 

CoCoRaHS
IN-AL-39
A2 Web Hosting
Creative Commons License
GoDaddy
search engine by freefind advanced

loaded 2018-11-19 11:28:49 • last modified 2010-11-18 10:43:29
Privacy PolicyDisclaimer
• wx.awcolley.com is powered by PmWiki v.2002016 •
• all content (unless otherwise noted) © 2018 A W Colley